createdAt,value
2022-11-26T00:00:21.128Z,17.43
2022-11-26T00:02:49.147Z,18.63
2022-11-26T00:05:16.829Z,24.30
2022-11-26T00:07:47.895Z,21.23
2022-11-26T00:10:19.815Z,22.07
2022-11-26T00:12:47.631Z,22.27
2022-11-26T00:15:19.998Z,25.47
2022-11-26T00:17:47.698Z,24.63
2022-11-26T00:20:15.220Z,27.60
2022-11-26T00:22:55.718Z,20.10
2022-11-26T00:25:24.700Z,25.63
2022-11-26T00:27:53.561Z,24.67
2022-11-26T00:30:22.878Z,31.77
2022-11-26T00:32:50.525Z,18.07
2022-11-26T00:35:18.447Z,23.00
2022-11-26T00:37:51.461Z,21.00
2022-11-26T00:40:20.177Z,24.23
2022-11-26T00:42:47.625Z,22.43
2022-11-26T00:45:19.227Z,17.47
2022-11-26T00:47:46.767Z,21.90
2022-11-26T00:50:15.227Z,17.13
2022-11-26T00:52:43.392Z,19.67
2022-11-26T00:55:16.324Z,23.77
2022-11-26T00:57:43.876Z,22.57
2022-11-26T01:00:15.129Z,18.43
2022-11-26T01:02:42.822Z,21.10
2022-11-26T01:05:10.304Z,30.00
2022-11-26T01:07:37.789Z,25.43
2022-11-26T01:10:05.800Z,27.20
2022-11-26T01:12:33.277Z,21.13
2022-11-26T01:15:00.681Z,19.73
2022-11-26T01:17:28.146Z,21.90
2022-11-26T01:19:55.579Z,22.80
2022-11-26T01:22:23.808Z,19.57
2022-11-26T01:24:51.307Z,23.23
2022-11-26T01:27:20.548Z,22.43
2022-11-26T01:29:48.134Z,29.03
2022-11-26T01:32:15.592Z,31.63
2022-11-26T01:34:42.995Z,23.73
2022-11-26T01:37:14.098Z,25.23
2022-11-26T01:39:41.673Z,28.67
2022-11-26T01:42:24.364Z,23.50
2022-11-26T01:44:51.894Z,19.97
2022-11-26T01:47:27.309Z,24.70
2022-11-26T01:50:13.520Z,19.73
2022-11-26T01:52:41.113Z,27.47
2022-11-26T01:55:11.150Z,27.07
2022-11-26T01:57:38.588Z,29.80
2022-11-26T02:00:06.464Z,26.03
2022-11-26T02:02:33.992Z,29.93
2022-11-26T02:05:06.321Z,23.93
2022-11-26T02:07:34.618Z,35.13
2022-11-26T02:10:02.068Z,27.87
2022-11-26T02:12:29.754Z,28.23
2022-11-26T02:14:57.279Z,24.90
2022-11-26T02:17:30.549Z,29.73
2022-11-26T02:20:01.052Z,35.00
2022-11-26T02:22:43.694Z,35.80
2022-11-26T02:25:20.352Z,29.50
2022-11-26T02:28:06.567Z,29.83
2022-11-26T02:30:37.625Z,34.13
2022-11-26T02:33:04.997Z,30.20
2022-11-26T02:35:39.453Z,31.70
2022-11-26T02:38:10.342Z,36.17
2022-11-26T02:40:37.921Z,33.17
2022-11-26T02:43:05.499Z,37.13
2022-11-26T02:45:38.251Z,33.60
2022-11-26T02:48:07.978Z,32.07
2022-11-26T02:50:54.052Z,41.17
2022-11-26T02:53:22.653Z,27.97
2022-11-26T02:55:51.615Z,32.77
2022-11-26T02:58:19.928Z,39.10
2022-11-26T03:00:49.108Z,37.03
2022-11-26T03:03:19.565Z,38.17
2022-11-26T03:05:47.063Z,37.57
2022-11-26T03:08:14.522Z,39.87
2022-11-26T03:10:41.988Z,40.17
2022-11-26T03:13:09.448Z,44.87
2022-11-26T03:15:36.897Z,36.70
2022-11-26T03:18:04.356Z,38.23
2022-11-26T03:20:31.792Z,38.90
2022-11-26T03:22:59.225Z,41.27
2022-11-26T03:25:26.744Z,37.40
2022-11-26T03:27:54.201Z,36.33
2022-11-26T03:30:21.613Z,28.97
2022-11-26T03:32:49.065Z,43.10
2022-11-26T03:35:16.592Z,34.20
2022-11-26T03:37:44.083Z,41.03
2022-11-26T03:40:11.693Z,35.87
2022-11-26T03:42:39.126Z,40.63
2022-11-26T03:45:06.898Z,35.87
2022-11-26T03:47:34.377Z,34.10
2022-11-26T03:50:04.921Z,38.50
2022-11-26T03:52:32.315Z,45.77
2022-11-26T03:54:59.781Z,38.53
2022-11-26T03:57:27.224Z,44.53
2022-11-26T03:59:54.638Z,39.83
2022-11-26T04:02:22.263Z,38.07
2022-11-26T04:04:49.714Z,43.13
2022-11-26T04:07:17.202Z,37.07
2022-11-26T04:09:44.641Z,30.40
2022-11-26T04:12:12.092Z,29.73
2022-11-26T04:14:39.722Z,43.73
2022-11-26T04:17:07.324Z,29.70
2022-11-26T04:19:34.757Z,34.30
2022-11-26T04:22:02.216Z,29.67
2022-11-26T04:24:29.662Z,30.73
2022-11-26T04:26:57.084Z,31.30
2022-11-26T04:29:24.515Z,26.63
2022-11-26T04:31:51.986Z,37.27
2022-11-26T04:34:19.472Z,33.70
2022-11-26T04:36:46.971Z,29.50
2022-11-26T04:39:14.409Z,30.63
2022-11-26T04:41:41.946Z,31.50
2022-11-26T04:44:09.359Z,22.47
2022-11-26T04:46:36.844Z,33.67
2022-11-26T04:49:04.244Z,27.03
2022-11-26T04:51:31.952Z,32.93
2022-11-26T04:54:02.985Z,27.83
2022-11-26T04:56:31.261Z,33.37
2022-11-26T04:58:58.679Z,33.37
2022-11-26T05:01:26.216Z,39.30
2022-11-26T05:03:53.753Z,30.80
2022-11-26T05:06:21.186Z,34.27
2022-11-26T05:08:48.642Z,31.93
2022-11-26T05:11:16.080Z,26.27
2022-11-26T05:13:43.618Z,30.60
2022-11-26T05:16:11.076Z,32.60
2022-11-26T05:18:38.545Z,37.13
2022-11-26T05:21:06.623Z,35.57
2022-11-26T05:23:34.147Z,35.83
2022-11-26T05:26:01.584Z,29.03
2022-11-26T05:28:29.110Z,25.83
2022-11-26T05:31:00.336Z,32.27
2022-11-26T05:33:28.212Z,24.80
2022-11-26T05:35:56.015Z,25.63
2022-11-26T05:38:23.530Z,30.67
2022-11-26T05:40:50.925Z,33.23
2022-11-26T05:43:18.413Z,30.40
2022-11-26T05:45:45.867Z,25.43
2022-11-26T05:48:13.337Z,28.90
2022-11-26T05:50:40.775Z,26.57
2022-11-26T05:53:08.219Z,36.87
2022-11-26T05:55:35.655Z,26.60
2022-11-26T05:58:03.105Z,27.77
2022-11-26T06:00:30.558Z,31.07
2022-11-26T06:02:58.310Z,33.17
2022-11-26T06:05:25.938Z,27.93
2022-11-26T06:07:53.421Z,29.80
2022-11-26T06:10:20.984Z,27.77
2022-11-26T06:12:48.453Z,32.13
2022-11-26T06:15:15.913Z,33.63
2022-11-26T06:17:43.428Z,40.37
2022-11-26T06:20:11.291Z,31.37
2022-11-26T06:22:39.359Z,31.03
2022-11-26T06:25:07.534Z,33.10
2022-11-26T06:27:35.135Z,32.90
2022-11-26T06:30:03.284Z,32.60
2022-11-26T06:32:31.340Z,35.17
2022-11-26T06:34:58.784Z,40.73
2022-11-26T06:37:26.742Z,46.67
2022-11-26T06:39:54.192Z,34.93
2022-11-26T06:42:21.629Z,40.70
2022-11-26T06:44:49.089Z,40.30
2022-11-26T06:47:16.572Z,34.00
2022-11-26T06:49:44.032Z,39.50
2022-11-26T06:52:11.460Z,42.07
2022-11-26T06:54:38.989Z,44.00
2022-11-26T06:57:06.563Z,42.30
2022-11-26T06:59:34.056Z,53.70
2022-11-26T07:02:01.550Z,33.20
2022-11-26T07:04:29.116Z,43.00
2022-11-26T07:06:56.629Z,47.27
2022-11-26T07:09:24.108Z,41.27
2022-11-26T07:11:51.560Z,51.90
2022-11-26T07:14:19.129Z,42.03
2022-11-26T07:16:46.587Z,39.33
2022-11-26T07:19:14.400Z,37.97
2022-11-26T07:21:42.037Z,43.83
2022-11-26T07:24:09.477Z,42.47
2022-11-26T07:26:36.917Z,39.87
2022-11-26T07:29:04.442Z,46.67
2022-11-26T07:31:31.953Z,52.97
2022-11-26T07:33:59.430Z,41.17
2022-11-26T07:36:30.081Z,37.57
2022-11-26T07:39:01.488Z,38.10
2022-11-26T07:41:29.614Z,43.40
2022-11-26T07:43:57.306Z,38.83
2022-11-26T07:46:25.720Z,38.77
2022-11-26T07:48:53.398Z,29.40
2022-11-26T07:51:22.035Z,32.63
2022-11-26T07:53:50.132Z,31.97
2022-11-26T07:56:18.022Z,30.23
2022-11-26T07:58:45.481Z,32.33
2022-11-26T08:01:14.196Z,32.33
2022-11-26T08:03:43.023Z,37.97
2022-11-26T08:06:11.408Z,34.67
2022-11-26T08:08:39.372Z,27.40
2022-11-26T08:11:12.470Z,33.77
2022-11-26T08:13:39.972Z,36.23
2022-11-26T08:16:07.549Z,27.80
2022-11-26T08:18:35.082Z,31.07
2022-11-26T08:21:02.550Z,27.70
2022-11-26T08:23:30.580Z,29.57
2022-11-26T08:28:46.365Z,34.30
2022-11-26T08:31:14.818Z,25.20
2022-11-26T08:33:42.726Z,38.17
2022-11-26T08:36:10.694Z,27.63
2022-11-26T08:38:38.479Z,26.90
2022-11-26T08:41:09.531Z,28.47
2022-11-26T08:44:04.430Z,32.33
2022-11-26T08:46:24.871Z,28.00
2022-11-26T08:48:52.545Z,26.00
2022-11-26T08:51:19.980Z,22.20
2022-11-26T08:53:47.421Z,28.43
2022-11-26T08:56:14.836Z,24.47
2022-11-26T08:58:43.592Z,23.63
2022-11-26T09:01:21.533Z,25.13
2022-11-26T09:03:49.898Z,29.83
2022-11-26T09:06:17.663Z,22.03
2022-11-26T09:08:45.208Z,21.33
2022-11-26T09:11:12.726Z,24.07
2022-11-26T09:13:40.405Z,26.97
2022-11-26T09:16:08.036Z,27.83
2022-11-26T09:18:35.533Z,21.37
2022-11-26T09:21:03.856Z,18.07
2022-11-26T09:23:31.434Z,26.93
2022-11-26T09:25:58.941Z,20.27
2022-11-26T09:28:26.384Z,23.40
2022-11-26T09:30:57.878Z,22.10
2022-11-26T09:33:25.458Z,16.47
2022-11-26T09:35:52.978Z,26.47
2022-11-26T09:38:20.456Z,18.87
2022-11-26T09:40:56.278Z,23.80
2022-11-26T09:43:23.723Z,19.90
2022-11-26T09:45:54.033Z,19.40
2022-11-26T09:48:23.206Z,17.43
2022-11-26T09:50:51.641Z,17.63
2022-11-26T09:53:24.734Z,19.60
2022-11-26T09:55:53.154Z,17.77
2022-11-26T09:58:27.055Z,20.90
2022-11-26T10:00:59.709Z,23.53
2022-11-26T10:03:30.821Z,18.73
2022-11-26T10:06:18.546Z,18.67
2022-11-26T10:08:49.321Z,13.03
2022-11-26T10:11:28.920Z,17.80
2022-11-26T10:14:10.668Z,17.37
2022-11-26T10:16:54.457Z,16.93
2022-11-26T10:19:28.180Z,19.00
2022-11-26T10:22:00.138Z,16.70
2022-11-26T10:24:32.818Z,17.30
2022-11-26T10:27:02.022Z,17.73
2022-11-26T10:29:38.129Z,17.00
2022-11-26T10:32:24.599Z,17.77
2022-11-26T10:34:53.180Z,18.87
2022-11-26T10:37:21.730Z,18.97
2022-11-26T10:39:55.435Z,18.77
2022-11-26T10:42:26.310Z,19.37
2022-11-26T10:44:54.138Z,14.43
2022-11-26T10:47:29.016Z,11.77
2022-11-26T10:49:56.572Z,21.40
2022-11-26T10:52:28.616Z,20.67
2022-11-26T10:55:08.447Z,17.60
2022-11-26T10:57:37.620Z,22.87
2022-11-26T11:00:05.455Z,15.47
2022-11-26T11:02:36.916Z,13.23
2022-11-26T11:05:05.632Z,18.13
2022-11-26T11:07:33.046Z,16.30
2022-11-26T11:10:05.299Z,14.90
2022-11-26T11:12:33.111Z,20.33
2022-11-26T11:15:18.836Z,19.70
2022-11-26T11:17:46.994Z,16.73
2022-11-26T11:20:17.593Z,18.60
2022-11-26T11:22:46.177Z,22.13
2022-11-26T11:25:28.900Z,18.30
2022-11-26T11:28:01.373Z,14.43
2022-11-26T11:30:31.919Z,20.27
2022-11-26T11:33:11.391Z,18.97
2022-11-26T11:35:39.704Z,19.00
2022-11-26T11:38:27.911Z,14.43
2022-11-26T11:41:10.037Z,16.43
2022-11-26T11:43:47.215Z,14.87
2022-11-26T11:46:26.542Z,14.47
2022-11-26T11:48:59.515Z,22.77
2022-11-26T11:51:39.336Z,15.27
2022-11-26T11:54:13.209Z,15.80
2022-11-26T11:56:41.986Z,22.00
2022-11-26T11:59:18.322Z,15.33
2022-11-26T12:01:54.720Z,16.27
2022-11-26T12:04:25.074Z,21.43
2022-11-26T12:06:58.815Z,16.33
2022-11-26T12:09:32.211Z,14.80
2022-11-26T12:12:01.355Z,19.73
2022-11-26T12:15:04.087Z,18.03
2022-11-26T12:17:37.933Z,16.83
2022-11-26T12:20:08.346Z,18.23
2022-11-26T12:22:40.044Z,22.27
2022-11-26T12:25:15.088Z,15.30
2022-11-26T12:27:55.981Z,16.83
2022-11-26T12:30:27.053Z,18.03
2022-11-26T12:32:57.692Z,13.80
2022-11-26T12:35:25.143Z,15.83
2022-11-26T12:37:57.267Z,22.03
2022-11-26T12:40:46.456Z,14.30
2022-11-26T12:43:19.660Z,15.23
2022-11-26T12:45:50.187Z,14.00
2022-11-26T12:48:20.479Z,11.87
2022-11-26T12:50:56.304Z,17.47
2022-11-26T12:53:38.898Z,19.23
2022-11-26T12:56:12.426Z,16.90
2022-11-26T12:58:58.559Z,16.27
2022-11-26T13:01:26.897Z,17.00
2022-11-26T13:04:08.674Z,15.77
2022-11-26T13:07:04.058Z,15.40
2022-11-26T13:09:40.021Z,13.67
2022-11-26T13:12:13.241Z,14.17
2022-11-26T13:14:45.813Z,11.60
2022-11-26T13:17:17.338Z,15.53
2022-11-26T13:19:47.575Z,19.00
2022-11-26T13:22:15.042Z,15.80
2022-11-26T13:24:55.782Z,16.03
2022-11-26T13:27:23.216Z,16.10
2022-11-26T13:29:50.624Z,16.27
2022-11-26T13:32:36.948Z,15.23
2022-11-26T13:35:12.090Z,19.17
2022-11-26T13:37:39.573Z,14.30
2022-11-26T13:40:15.979Z,14.00
2022-11-26T13:43:02.029Z,12.80
2022-11-26T13:45:42.036Z,12.47
2022-11-26T13:48:18.617Z,16.70
2022-11-26T13:50:55.625Z,16.63
2022-11-26T13:53:27.103Z,20.27
2022-11-26T13:56:00.366Z,14.77
2022-11-26T13:58:32.798Z,15.30
2022-11-26T14:01:19.074Z,14.37
2022-11-26T14:03:47.856Z,11.23
2022-11-26T14:06:15.736Z,13.83
2022-11-26T14:08:44.443Z,12.93
2022-11-26T14:11:12.385Z,12.07
2022-11-26T14:13:39.900Z,13.37
2022-11-26T14:16:08.454Z,18.20
2022-11-26T14:18:51.370Z,14.37
2022-11-26T14:21:20.232Z,11.23
2022-11-26T14:23:55.146Z,19.23
2022-11-26T14:26:38.164Z,11.17
2022-11-26T14:29:09.107Z,15.63
2022-11-26T14:31:38.853Z,16.33
2022-11-26T14:34:12.580Z,10.60
2022-11-26T14:36:51.067Z,11.20
2022-11-26T14:39:18.549Z,9.33
2022-11-26T14:41:49.015Z,12.77
2022-11-26T14:44:17.720Z,17.13
2022-11-26T14:46:49.876Z,12.63
2022-11-26T14:49:26.334Z,12.60
2022-11-26T14:51:54.155Z,13.00
2022-11-26T14:54:25.716Z,13.23
2022-11-26T14:56:53.227Z,14.30
2022-11-26T14:59:20.685Z,14.63
2022-11-26T15:01:48.223Z,14.73
2022-11-26T15:04:29.130Z,12.33
2022-11-26T15:06:56.872Z,15.80
2022-11-26T15:09:25.297Z,14.07
2022-11-26T15:11:52.857Z,13.33
2022-11-26T15:14:23.537Z,13.33
2022-11-26T15:16:55.980Z,10.20
2022-11-26T15:19:23.936Z,11.77
2022-11-26T15:21:51.564Z,13.63
2022-11-26T15:24:19.184Z,13.73
2022-11-26T15:26:48.324Z,12.40
2022-11-26T15:29:33.578Z,9.17
2022-11-26T15:32:01.391Z,11.43
2022-11-26T15:34:29.812Z,13.00
2022-11-26T15:36:57.302Z,9.73
2022-11-26T15:39:29.127Z,13.53
2022-11-26T15:42:00.470Z,12.33
2022-11-26T15:44:29.134Z,11.20
2022-11-26T15:46:57.671Z,13.10
2022-11-26T15:49:27.658Z,20.43
2022-11-26T15:51:57.733Z,12.30
2022-11-26T15:54:43.398Z,8.50
2022-11-26T15:57:22.068Z,9.03
2022-11-26T15:59:52.083Z,13.93
2022-11-26T16:02:20.533Z,17.07
2022-11-26T16:04:55.499Z,12.87
2022-11-26T16:07:24.112Z,16.00
2022-11-26T16:09:52.578Z,11.50
2022-11-26T16:12:25.751Z,14.20
2022-11-26T16:14:53.289Z,9.53
2022-11-26T16:17:21.394Z,9.00
2022-11-26T16:19:51.165Z,12.40
2022-11-26T16:22:21.756Z,8.13
2022-11-26T16:25:03.493Z,14.97
2022-11-26T16:27:32.077Z,12.67
2022-11-26T16:29:59.696Z,15.10
2022-11-26T16:32:27.200Z,12.93
2022-11-26T16:34:54.666Z,16.30
2022-11-26T16:37:29.681Z,13.53
2022-11-26T16:40:01.144Z,14.67
2022-11-26T16:42:30.734Z,13.10
2022-11-26T16:45:03.787Z,14.37
2022-11-26T16:47:32.825Z,15.53
2022-11-26T16:50:00.337Z,12.40
2022-11-26T16:52:27.876Z,9.17
2022-11-26T16:54:55.475Z,10.73
2022-11-26T16:57:24.355Z,12.87
2022-11-26T16:59:53.184Z,15.10
2022-11-26T17:02:21.807Z,13.13
2022-11-26T17:04:49.499Z,15.50
2022-11-26T17:07:29.436Z,14.37
2022-11-26T17:09:57.597Z,11.77
2022-11-26T17:12:25.735Z,15.20
2022-11-26T17:17:29.020Z,18.50
2022-11-26T17:19:56.494Z,11.03
2022-11-26T17:22:24.715Z,10.73
2022-11-26T17:24:52.267Z,13.27
2022-11-26T17:27:20.722Z,16.10
2022-11-26T17:29:48.718Z,14.00
2022-11-26T17:32:17.966Z,16.80
2022-11-26T17:34:45.901Z,15.80
2022-11-26T17:37:26.553Z,13.93
2022-11-26T17:39:54.195Z,11.83
2022-11-26T17:42:21.882Z,13.17
2022-11-26T17:44:49.806Z,13.00
2022-11-26T17:47:18.310Z,12.90
2022-11-26T17:49:46.787Z,14.97
2022-11-26T17:52:14.928Z,15.20
2022-11-26T17:54:42.582Z,12.03
2022-11-26T17:57:10.972Z,11.87
2022-11-26T17:59:38.692Z,18.13
2022-11-26T18:02:06.389Z,14.33
2022-11-26T18:04:33.875Z,12.90
2022-11-26T18:07:12.641Z,15.63
2022-11-26T18:09:41.057Z,13.33
2022-11-26T18:12:10.033Z,16.23
2022-11-26T18:14:41.536Z,14.60
2022-11-26T18:17:09.965Z,16.03
2022-11-26T18:19:43.172Z,14.20
2022-11-26T18:22:13.132Z,18.67
2022-11-26T18:24:40.589Z,12.27
2022-11-26T18:27:08.054Z,13.23
2022-11-26T18:29:35.603Z,18.20
2022-11-26T18:32:03.099Z,11.57
2022-11-26T18:34:30.540Z,13.17
2022-11-26T18:36:58.064Z,15.70
2022-11-26T18:39:25.534Z,19.13
2022-11-26T18:42:00.725Z,18.90
2022-11-26T18:44:40.424Z,13.30
2022-11-26T18:47:09.383Z,15.43
2022-11-26T18:49:37.222Z,19.50
2022-11-26T18:52:04.965Z,10.10
2022-11-26T18:54:32.451Z,16.07
2022-11-26T18:56:59.940Z,12.87
2022-11-26T18:59:27.431Z,20.60
2022-11-26T19:01:55.042Z,14.37
2022-11-26T19:04:22.634Z,15.63
2022-11-26T19:06:50.085Z,12.30
2022-11-26T19:09:19.196Z,11.53
2022-11-26T19:11:47.093Z,12.57
2022-11-26T19:14:15.427Z,14.10
2022-11-26T19:16:43.582Z,15.80
2022-11-26T19:19:11.109Z,14.63
2022-11-26T19:21:38.645Z,15.43
2022-11-26T19:24:07.228Z,18.57
2022-11-26T19:26:36.236Z,16.63
2022-11-26T19:29:05.347Z,20.67
2022-11-26T19:31:33.254Z,12.93
2022-11-26T19:34:00.770Z,15.43
2022-11-26T19:36:28.226Z,14.37
2022-11-26T19:38:56.443Z,14.73
2022-11-26T19:41:25.980Z,14.40
2022-11-26T19:43:54.127Z,10.33
2022-11-26T19:46:23.584Z,17.77
2022-11-26T19:48:51.732Z,15.03
2022-11-26T19:51:20.882Z,14.03
2022-11-26T19:53:49.209Z,15.37
2022-11-26T19:56:18.963Z,15.87
2022-11-26T19:58:47.048Z,15.83
2022-11-26T20:01:16.973Z,11.77
2022-11-26T20:03:44.594Z,14.60
2022-11-26T20:06:19.718Z,15.57
2022-11-26T20:08:47.783Z,14.37
2022-11-26T20:11:16.470Z,12.27
2022-11-26T20:13:44.863Z,13.17
2022-11-26T20:16:14.172Z,12.60
2022-11-26T20:18:41.704Z,12.90
2022-11-26T20:21:11.228Z,15.93
2022-11-26T20:23:38.836Z,15.67
2022-11-26T20:26:13.541Z,15.77
2022-11-26T20:28:41.087Z,13.40
2022-11-26T20:31:08.703Z,20.10
2022-11-26T20:33:36.353Z,14.37
2022-11-26T20:36:07.714Z,16.80
2022-11-26T20:38:35.770Z,13.47
2022-11-26T20:41:13.522Z,14.83
2022-11-26T20:43:41.130Z,18.40
2022-11-26T20:46:10.292Z,16.63
2022-11-26T20:48:38.783Z,15.10
2022-11-26T20:51:07.415Z,13.80
2022-11-26T20:53:35.778Z,18.00
2022-11-26T20:56:03.992Z,19.23
2022-11-26T20:58:31.667Z,15.90
2022-11-26T21:00:59.206Z,13.23
2022-11-26T21:03:27.801Z,15.50
2022-11-26T21:05:55.690Z,17.00
2022-11-26T21:08:23.700Z,14.97
2022-11-26T21:10:51.289Z,13.93
2022-11-26T21:13:19.388Z,15.20
2022-11-26T21:15:47.136Z,15.10
2022-11-26T21:18:15.028Z,20.37
2022-11-26T21:20:42.963Z,17.90
2022-11-26T21:23:11.520Z,19.70
2022-11-26T21:25:40.072Z,13.07
2022-11-26T21:28:07.709Z,11.97
2022-11-26T21:30:35.623Z,19.10
2022-11-26T21:33:09.025Z,16.20
2022-11-26T21:35:37.905Z,12.67
2022-11-26T21:38:06.090Z,15.27
2022-11-26T21:40:33.911Z,14.70
2022-11-26T21:43:01.454Z,18.93
2022-11-26T21:45:28.874Z,14.83
2022-11-26T21:47:56.332Z,17.80
2022-11-26T21:50:23.948Z,11.40
2022-11-26T21:52:51.597Z,17.03
2022-11-26T21:55:19.197Z,16.57
2022-11-26T21:57:46.681Z,13.77
2022-11-26T22:00:14.460Z,17.93
2022-11-26T22:02:42.134Z,15.80
2022-11-26T22:05:09.682Z,20.80
2022-11-26T22:07:37.316Z,17.10
2022-11-26T22:10:05.317Z,16.20
2022-11-26T22:12:32.868Z,15.00
2022-11-26T22:15:00.319Z,15.53
2022-11-26T22:17:27.818Z,17.10
2022-11-26T22:19:55.263Z,18.07
2022-11-26T22:22:22.794Z,16.47
2022-11-26T22:24:50.216Z,16.67
2022-11-26T22:27:17.728Z,15.53
2022-11-26T22:29:45.216Z,22.50
2022-11-26T22:32:12.731Z,16.70
2022-11-26T22:34:40.267Z,18.70
2022-11-26T22:37:07.767Z,17.83
2022-11-26T22:39:35.255Z,14.37
2022-11-26T22:42:03.297Z,17.47
2022-11-26T22:44:30.752Z,18.73
2022-11-26T22:46:58.385Z,22.80
2022-11-26T22:49:25.928Z,18.47
2022-11-26T22:51:53.385Z,17.57
2022-11-26T22:54:20.856Z,15.03
2022-11-26T22:56:48.308Z,17.20
2022-11-26T22:59:15.748Z,17.47
2022-11-26T23:01:45.382Z,18.73
2022-11-26T23:04:12.815Z,15.67
2022-11-26T23:06:40.520Z,14.73
2022-11-26T23:09:08.911Z,13.40
2022-11-26T23:11:40.775Z,16.27
2022-11-26T23:14:08.719Z,19.67
2022-11-26T23:16:37.389Z,15.33
2022-11-26T23:19:05.396Z,17.03
2022-11-26T23:21:34.318Z,15.97
2022-11-26T23:24:01.989Z,13.00
2022-11-26T23:26:31.155Z,14.37
2022-11-26T23:28:59.649Z,18.70
2022-11-26T23:31:28.500Z,18.53
2022-11-26T23:33:56.137Z,14.97
2022-11-26T23:36:23.970Z,20.53
2022-11-26T23:38:51.502Z,20.83
2022-11-26T23:41:19.115Z,17.57
2022-11-26T23:43:46.693Z,18.33
2022-11-26T23:46:15.678Z,19.40
2022-11-26T23:48:43.635Z,17.77
2022-11-26T23:51:13.350Z,15.60
2022-11-26T23:53:41.864Z,17.67
2022-11-26T23:56:12.025Z,15.43
2022-11-26T23:58:39.567Z,14.47
